createdAt,value
2018-11-13T00:00:22.810Z,57.50
2018-11-13T00:02:52.760Z,54.13
2018-11-13T00:05:23.498Z,50.67
2018-11-13T00:07:52.537Z,48.47
2018-11-13T00:10:22.777Z,52.40
2018-11-13T00:12:53.867Z,54.50
2018-11-13T00:15:23.205Z,53.67
2018-11-13T00:17:51.938Z,57.73
2018-11-13T00:20:22.265Z,55.47
2018-11-13T00:22:54.322Z,63.73
2018-11-13T00:25:23.864Z,59.27
2018-11-13T00:27:53.698Z,60.93
2018-11-13T00:30:26.916Z,56.97
2018-11-13T00:32:55.032Z,44.60
2018-11-13T00:35:23.731Z,47.23
2018-11-13T00:37:52.466Z,55.40
2018-11-13T00:40:22.605Z,56.90
2018-11-13T00:42:57.512Z,54.17
2018-11-13T00:45:27.493Z,36.17
2018-11-13T00:47:55.719Z,50.70
2018-11-13T00:50:24.767Z,41.00
2018-11-13T00:52:54.453Z,30.43
2018-11-13T00:55:27.167Z,37.70
2018-11-13T00:57:55.300Z,36.43
2018-11-13T01:00:25.268Z,36.87
2018-11-13T01:02:57.981Z,39.77
2018-11-13T01:05:26.006Z,42.07
2018-11-13T01:07:54.316Z,46.87
2018-11-13T01:10:24.256Z,45.93
2018-11-13T01:12:54.655Z,45.63
2018-11-13T01:15:23.530Z,42.60
2018-11-13T01:17:53.777Z,40.13
2018-11-13T01:20:23.964Z,40.10
2018-11-13T01:22:52.336Z,44.53
2018-11-13T01:25:24.746Z,39.70
2018-11-13T01:27:52.750Z,41.37
2018-11-13T01:30:20.780Z,34.70
2018-11-13T01:32:54.658Z,40.37
2018-11-13T01:35:24.267Z,34.63
2018-11-13T01:37:52.585Z,35.40
2018-11-13T01:40:22.389Z,39.60
2018-11-13T01:42:51.192Z,37.77
2018-11-13T01:45:21.204Z,32.23
2018-11-13T01:47:51.922Z,37.17
2018-11-13T01:50:20.653Z,31.27
2018-11-13T01:52:48.537Z,30.33
2018-11-13T01:55:16.686Z,31.90
2018-11-13T01:57:44.906Z,30.93
2018-11-13T02:00:23.120Z,31.60
2018-11-13T02:02:53.105Z,34.37
2018-11-13T02:05:23.575Z,31.27
2018-11-13T02:07:52.185Z,31.63
2018-11-13T02:10:21.466Z,35.40
2018-11-13T02:12:50.165Z,34.60
2018-11-13T02:15:18.855Z,35.67
2018-11-13T02:17:47.425Z,35.50
2018-11-13T02:20:19.125Z,37.03
2018-11-13T02:22:47.296Z,46.33
2018-11-13T02:25:17.895Z,45.80
2018-11-13T02:27:46.311Z,50.07
2018-11-13T02:30:16.177Z,49.97
2018-11-13T02:32:45.487Z,51.00
2018-11-13T02:35:14.158Z,54.77
2018-11-13T02:37:42.519Z,51.43
2018-11-13T02:40:10.510Z,55.23
2018-11-13T02:42:38.900Z,53.63
2018-11-13T02:45:10.167Z,54.83
2018-11-13T02:47:40.081Z,56.93
2018-11-13T02:50:15.261Z,53.20
2018-11-13T02:52:43.535Z,54.97
2018-11-13T02:55:11.941Z,51.70
2018-11-13T02:57:42.034Z,52.87
2018-11-13T03:00:14.070Z,52.50
2018-11-13T03:02:42.731Z,59.33
2018-11-13T03:05:14.392Z,58.40
2018-11-13T03:07:43.954Z,61.57
2018-11-13T03:10:15.206Z,58.77
2018-11-13T03:12:44.511Z,56.63
2018-11-13T03:15:14.534Z,56.43
2018-11-13T03:17:42.974Z,55.93
2018-11-13T03:20:12.986Z,55.87
2018-11-13T03:22:41.826Z,47.80
2018-11-13T03:25:12.685Z,44.23
2018-11-13T03:27:41.660Z,52.40
2018-11-13T03:30:22.923Z,49.50
2018-11-13T03:32:51.265Z,37.23
2018-11-13T03:35:19.340Z,42.57
2018-11-13T03:37:48.554Z,41.40
2018-11-13T03:40:17.137Z,51.97
2018-11-13T03:42:46.181Z,54.20
2018-11-13T03:45:14.668Z,55.23
2018-11-13T03:47:42.956Z,55.00
2018-11-13T03:50:16.317Z,58.97
2018-11-13T03:52:44.995Z,59.50
2018-11-13T03:55:14.327Z,59.70
2018-11-13T03:57:45.373Z,62.73
2018-11-13T04:00:15.618Z,67.22
2018-11-13T04:02:44.024Z,67.90
2018-11-13T04:05:13.174Z,63.70
2018-11-13T04:07:44.648Z,75.80
2018-11-13T04:10:13.636Z,62.70
2018-11-13T04:12:42.128Z,68.80
2018-11-13T04:15:12.192Z,40.80
2018-11-13T04:17:42.077Z,50.83
2018-11-13T04:20:14.077Z,43.80
2018-11-13T04:22:43.098Z,45.60
2018-11-13T04:25:13.001Z,47.40
2018-11-13T04:27:41.442Z,56.77
2018-11-13T04:30:12.615Z,48.30
2018-11-13T04:32:41.050Z,57.43
2018-11-13T04:35:10.603Z,62.88
2018-11-13T04:37:38.962Z,56.57
2018-11-13T04:40:10.947Z,59.50
2018-11-13T04:42:40.525Z,53.53
2018-11-13T04:45:10.271Z,52.67
2018-11-13T04:47:39.791Z,46.20
2018-11-13T04:50:09.683Z,49.23
2018-11-13T04:52:38.083Z,49.17
2018-11-13T04:55:07.640Z,51.00
2018-11-13T04:57:39.440Z,48.70
2018-11-13T05:00:10.050Z,45.73
2018-11-13T05:02:40.000Z,47.57
2018-11-13T05:05:08.976Z,51.27
2018-11-13T05:07:37.684Z,47.73
2018-11-13T05:10:08.464Z,49.90
2018-11-13T05:12:38.929Z,51.10
2018-11-13T05:15:07.467Z,53.03
2018-11-13T05:17:38.370Z,58.27
2018-11-13T05:20:07.347Z,55.03
2018-11-13T05:22:35.578Z,59.33
2018-11-13T05:25:06.044Z,56.43
2018-11-13T05:27:33.977Z,57.87
2018-11-13T05:30:02.857Z,57.30
2018-11-13T05:32:33.292Z,57.43
2018-11-13T05:35:01.468Z,60.37
2018-11-13T05:37:30.466Z,60.53
2018-11-13T05:42:51.342Z,59.20
2018-11-13T05:45:21.275Z,58.93
2018-11-13T05:47:49.471Z,62.10
2018-11-13T05:50:18.474Z,62.30
2018-11-13T05:52:50.459Z,60.73
2018-11-13T05:55:19.170Z,60.30
2018-11-13T05:57:47.690Z,58.57
2018-11-13T06:00:20.960Z,58.67
2018-11-13T06:02:50.076Z,59.07
2018-11-13T06:05:18.907Z,63.47
2018-11-13T06:07:47.418Z,87.30
2018-11-13T06:10:18.436Z,69.10
2018-11-13T06:12:46.608Z,71.53
2018-11-13T06:15:14.640Z,64.67
2018-11-13T06:17:42.946Z,58.33
2018-11-13T06:20:13.776Z,62.83
2018-11-13T06:22:42.559Z,65.60
2018-11-13T06:25:12.879Z,68.27
2018-11-13T06:27:43.763Z,63.57
2018-11-13T06:30:14.356Z,68.23
2018-11-13T06:32:43.408Z,61.60
2018-11-13T06:35:11.583Z,65.00
2018-11-13T06:37:40.063Z,62.57
2018-11-13T06:40:10.921Z,61.70
2018-11-13T06:42:39.732Z,58.20
2018-11-13T06:45:10.309Z,58.80
2018-11-13T06:47:39.567Z,51.13
2018-11-13T06:50:09.728Z,72.07
2018-11-13T06:52:37.886Z,63.23
2018-11-13T06:55:11.685Z,67.63
2018-11-13T06:57:40.756Z,71.50
2018-11-13T07:00:09.418Z,57.07
2018-11-13T07:02:38.617Z,48.87
2018-11-13T07:05:09.701Z,49.27
2018-11-13T07:07:40.630Z,46.27
2018-11-13T07:10:10.323Z,48.17
2018-11-13T07:12:42.007Z,48.30
2018-11-13T07:15:12.444Z,48.20
2018-11-13T07:17:42.192Z,48.37
2018-11-13T07:20:11.291Z,47.47
2018-11-13T07:22:40.372Z,48.43
2018-11-13T07:25:08.501Z,51.57
2018-11-13T07:27:36.842Z,50.17
2018-11-13T07:30:06.523Z,50.10
2018-11-13T07:32:38.880Z,50.53
2018-11-13T07:35:07.724Z,49.83
2018-11-13T07:37:36.890Z,47.33
2018-11-13T07:40:06.598Z,46.27
2018-11-13T07:42:35.992Z,47.27
2018-11-13T07:45:05.845Z,51.60
2018-11-13T07:47:34.004Z,49.17
2018-11-13T07:50:02.479Z,55.97
2018-11-13T07:52:30.679Z,61.73
2018-11-13T07:54:58.899Z,61.03
2018-11-13T07:57:27.975Z,60.87
2018-11-13T07:59:56.456Z,60.73
2018-11-13T08:02:25.767Z,57.73
2018-11-13T08:04:53.759Z,56.53
2018-11-13T08:07:23.057Z,59.17
2018-11-13T08:09:51.060Z,59.33
2018-11-13T08:12:20.198Z,65.27
2018-11-13T08:14:48.254Z,60.73
2018-11-13T08:17:17.766Z,53.13
2018-11-13T08:19:46.660Z,51.90
2018-11-13T08:22:17.018Z,51.67
2018-11-13T08:24:45.803Z,52.83
2018-11-13T08:27:14.110Z,54.87
2018-11-13T08:29:43.090Z,51.30
2018-11-13T08:32:12.140Z,50.37
2018-11-13T08:34:40.225Z,48.67
2018-11-13T08:37:10.120Z,66.50
2018-11-13T08:39:48.371Z,52.03
2018-11-13T08:42:22.450Z,57.70
2018-11-13T08:44:50.493Z,63.20
2018-11-13T08:47:19.358Z,55.37
2018-11-13T08:49:47.464Z,58.57
2018-11-13T08:52:15.646Z,57.40
2018-11-13T08:54:43.644Z,51.90
2018-11-13T08:57:12.009Z,54.57
2018-11-13T08:59:40.338Z,55.47
2018-11-13T09:02:09.018Z,54.30
2018-11-13T09:04:38.245Z,54.80
2018-11-13T09:07:06.467Z,56.47
2018-11-13T09:09:36.722Z,55.40
2018-11-13T09:12:04.902Z,55.80
2018-11-13T09:14:33.688Z,51.67
2018-11-13T09:17:02.337Z,54.53
2018-11-13T09:19:30.805Z,47.90
2018-11-13T09:22:00.307Z,48.13
2018-11-13T09:24:31.993Z,43.10
2018-11-13T09:27:00.071Z,46.17
2018-11-13T09:29:28.849Z,44.37
2018-11-13T09:31:58.195Z,40.93
2018-11-13T09:34:26.184Z,32.83
2018-11-13T09:36:55.600Z,30.43
2018-11-13T09:39:23.679Z,38.70
2018-11-13T09:41:51.828Z,36.93
2018-11-13T09:44:23.315Z,34.53
2018-11-13T09:46:54.857Z,30.67
2018-11-13T09:49:22.939Z,35.00
2018-11-13T09:51:51.687Z,38.73
2018-11-13T09:54:22.496Z,37.17
2018-11-13T09:56:53.579Z,25.73
2018-11-13T09:59:22.923Z,36.30
2018-11-13T10:01:55.689Z,34.03
2018-11-13T10:04:24.690Z,35.40
2018-11-13T10:06:55.299Z,25.00
2018-11-13T10:09:23.516Z,34.50
2018-11-13T10:11:52.272Z,32.53
2018-11-13T10:14:21.276Z,32.23
2018-11-13T10:16:50.223Z,23.83
2018-11-13T10:19:18.307Z,24.70
2018-11-13T10:21:46.270Z,27.53
2018-11-13T10:24:14.438Z,33.10
2018-11-13T10:26:42.993Z,28.90
2018-11-13T10:29:11.055Z,32.20
2018-11-13T10:31:40.366Z,32.03
2018-11-13T10:34:09.121Z,31.63
2018-11-13T10:36:40.440Z,30.03
2018-11-13T10:39:10.361Z,25.80
2018-11-13T10:41:39.082Z,26.10
2018-11-13T10:44:07.222Z,20.17
2018-11-13T10:46:35.763Z,29.40
2018-11-13T10:49:04.205Z,29.77
2018-11-13T10:51:32.166Z,23.70
2018-11-13T10:54:00.383Z,19.00
2018-11-13T10:56:29.443Z,15.30
2018-11-13T10:58:58.114Z,22.13
2018-11-13T11:01:32.276Z,12.90
2018-11-13T11:04:06.043Z,14.43
2018-11-13T11:06:35.036Z,20.30
2018-11-13T11:09:04.049Z,14.00
2018-11-13T11:11:32.389Z,17.67
2018-11-13T11:14:03.987Z,16.50
2018-11-13T11:16:40.984Z,19.73
2018-11-13T11:19:18.269Z,16.62
2018-11-13T11:21:46.531Z,21.12
2018-11-13T11:24:15.413Z,17.13
2018-11-13T11:26:43.507Z,17.43
2018-11-13T11:29:14.134Z,19.67
2018-11-13T11:31:46.479Z,15.97
2018-11-13T11:34:14.689Z,12.03
2018-11-13T11:36:50.661Z,17.40
2018-11-13T11:39:19.439Z,18.83
2018-11-13T11:41:47.571Z,13.93
2018-11-13T11:44:15.741Z,20.37
2018-11-13T11:46:43.924Z,13.60
2018-11-13T11:49:11.943Z,21.03
2018-11-13T11:51:41.008Z,13.10
2018-11-13T11:54:09.063Z,17.00
2018-11-13T11:56:40.866Z,17.00
2018-11-13T11:59:08.852Z,15.63
2018-11-13T12:01:37.509Z,14.63
2018-11-13T12:04:05.709Z,20.97
2018-11-13T12:06:33.854Z,17.77
2018-11-13T12:09:01.868Z,13.37
2018-11-13T12:11:30.037Z,12.40
2018-11-13T12:13:58.201Z,12.17
2018-11-13T12:16:27.184Z,16.37
2018-11-13T12:18:55.240Z,19.47
2018-11-13T12:21:24.413Z,20.10
2018-11-13T12:23:52.791Z,18.73
2018-11-13T12:26:20.904Z,15.27
2018-11-13T12:28:48.895Z,19.60
2018-11-13T12:31:17.112Z,11.97
2018-11-13T12:33:50.719Z,14.97
2018-11-13T12:36:21.452Z,16.67
2018-11-13T12:38:52.520Z,15.30
2018-11-13T12:41:21.557Z,17.43
2018-11-13T12:43:51.728Z,20.43
2018-11-13T12:46:22.041Z,16.80
2018-11-13T12:48:50.237Z,14.87
2018-11-13T12:51:24.775Z,13.80
2018-11-13T12:53:53.330Z,16.63
2018-11-13T12:56:25.158Z,14.57
2018-11-13T12:58:53.359Z,14.27
2018-11-13T13:01:23.810Z,17.23
2018-11-13T13:03:52.162Z,18.43
2018-11-13T13:06:20.162Z,15.20
2018-11-13T13:08:49.599Z,17.70
2018-11-13T13:11:17.571Z,17.67
2018-11-13T13:13:45.878Z,14.57
2018-11-13T13:16:17.673Z,12.40
2018-11-13T13:18:46.109Z,17.20
2018-11-13T13:21:14.194Z,16.33
2018-11-13T13:23:43.157Z,16.97
2018-11-13T13:26:12.095Z,18.12
2018-11-13T13:28:40.429Z,14.60
2018-11-13T13:31:08.707Z,18.10
2018-11-13T13:33:39.867Z,17.23
2018-11-13T13:36:07.892Z,13.03
2018-11-13T13:38:40.634Z,13.13
2018-11-13T13:41:08.716Z,17.03
2018-11-13T13:43:40.705Z,20.50
2018-11-13T13:46:09.449Z,19.77
2018-11-13T13:48:39.323Z,20.73
2018-11-13T13:51:11.617Z,18.00
2018-11-13T13:53:40.929Z,19.73
2018-11-13T13:56:12.448Z,17.87
2018-11-13T13:58:41.684Z,14.57
2018-11-13T14:01:13.390Z,15.70
2018-11-13T14:03:41.510Z,15.87
2018-11-13T14:09:10.404Z,16.20
2018-11-13T14:11:41.214Z,12.70
2018-11-13T14:14:09.245Z,20.27
2018-11-13T14:16:38.296Z,20.43
2018-11-13T14:19:07.017Z,19.73
2018-11-13T14:21:43.748Z,18.90
2018-11-13T14:24:12.612Z,15.63
2018-11-13T14:26:43.669Z,16.07
2018-11-13T14:29:12.616Z,24.33
2018-11-13T14:31:41.728Z,18.70
2018-11-13T14:34:13.161Z,18.63
2018-11-13T14:36:41.483Z,18.70
2018-11-13T14:39:13.037Z,20.70
2018-11-13T14:41:44.895Z,20.13
2018-11-13T14:44:27.246Z,15.93
2018-11-13T14:46:58.067Z,20.40
2018-11-13T14:49:31.792Z,16.97
2018-11-13T14:52:01.796Z,21.43
2018-11-13T14:54:29.810Z,15.80
2018-11-13T14:57:01.894Z,21.17
2018-11-13T14:59:42.599Z,12.87
2018-11-13T15:02:10.955Z,14.90
2018-11-13T15:04:39.104Z,14.60
2018-11-13T15:07:07.798Z,17.47
2018-11-13T15:09:51.108Z,14.77
2018-11-13T15:12:32.274Z,16.70
2018-11-13T15:15:03.254Z,15.63
2018-11-13T15:17:34.498Z,20.80
2018-11-13T15:20:03.723Z,15.40
2018-11-13T15:22:38.374Z,19.37
2018-11-13T15:25:09.095Z,15.57
2018-11-13T15:27:39.798Z,17.07
2018-11-13T15:30:16.663Z,15.80
2018-11-13T15:32:46.730Z,17.83
2018-11-13T15:35:21.687Z,18.97
2018-11-13T15:38:04.444Z,18.03
2018-11-13T15:40:32.547Z,23.67
2018-11-13T15:43:07.777Z,21.17
2018-11-13T15:45:38.856Z,22.63
2018-11-13T15:48:12.924Z,23.73
2018-11-13T15:50:41.051Z,20.07
2018-11-13T15:56:15.652Z,25.70
2018-11-13T15:58:48.442Z,25.53
2018-11-13T16:03:55.898Z,19.53
2018-11-13T16:06:24.339Z,22.27
2018-11-13T16:08:52.273Z,23.60
2018-11-13T16:11:20.617Z,27.53
2018-11-13T16:13:48.551Z,26.43
2018-11-13T16:16:18.125Z,28.10
2018-11-13T16:18:46.118Z,27.70
2018-11-13T16:21:14.023Z,31.57
2018-11-13T16:23:42.118Z,27.67
2018-11-13T16:26:10.290Z,29.00
2018-11-13T16:28:38.482Z,32.80
2018-11-13T16:31:06.857Z,35.65
2018-11-13T16:33:34.939Z,34.53
2018-11-13T16:36:03.011Z,32.47
2018-11-13T16:38:31.255Z,31.77
2018-11-13T16:40:59.238Z,35.07
2018-11-13T16:43:27.338Z,41.13
2018-11-13T16:45:55.421Z,36.30
2018-11-13T16:48:23.778Z,35.23
2018-11-13T16:50:51.630Z,35.30
2018-11-13T16:53:19.661Z,38.13
2018-11-13T16:55:53.147Z,38.77
2018-11-13T16:58:21.162Z,44.43
2018-11-13T17:00:49.234Z,44.03
2018-11-13T17:03:17.144Z,40.33
2018-11-13T17:05:45.244Z,44.37
2018-11-13T17:08:14.053Z,44.87
2018-11-13T17:10:42.950Z,43.43
2018-11-13T17:13:11.029Z,39.20
2018-11-13T17:15:39.120Z,51.77
2018-11-13T17:18:07.435Z,49.67
2018-11-13T17:20:35.528Z,52.83
2018-11-13T17:23:03.590Z,56.80
2018-11-13T17:25:33.360Z,42.80
2018-11-13T17:28:01.600Z,44.03
2018-11-13T17:30:30.935Z,43.27
2018-11-13T17:33:00.981Z,35.33
2018-11-13T17:35:29.998Z,38.60
2018-11-13T17:37:58.532Z,38.20
2018-11-13T17:40:29.933Z,38.90
2018-11-13T17:42:59.617Z,45.97
2018-11-13T17:45:35.362Z,36.50
2018-11-13T17:48:03.506Z,46.70
2018-11-13T17:50:37.569Z,51.37
2018-11-13T17:53:06.311Z,41.93
2018-11-13T17:55:34.249Z,40.33
2018-11-13T17:58:06.449Z,39.07
2018-11-13T18:00:38.718Z,38.37
2018-11-13T18:03:07.654Z,30.37
2018-11-13T18:05:35.891Z,34.77
2018-11-13T18:08:04.521Z,39.07
2018-11-13T18:10:33.138Z,38.27
2018-11-13T18:13:01.711Z,39.20
2018-11-13T18:15:30.021Z,35.57
2018-11-13T18:17:58.095Z,36.63
2018-11-13T18:20:27.288Z,35.20
2018-11-13T18:22:55.228Z,37.43
2018-11-13T18:25:23.274Z,35.87
2018-11-13T18:27:52.618Z,37.27
2018-11-13T18:30:22.874Z,35.77
2018-11-13T18:32:51.101Z,32.77
2018-11-13T18:35:21.154Z,38.60
2018-11-13T18:37:49.988Z,35.87
2018-11-13T18:40:18.787Z,38.43
2018-11-13T18:42:47.771Z,33.60
2018-11-13T18:45:22.981Z,36.33
2018-11-13T18:47:51.074Z,36.57
2018-11-13T18:50:21.584Z,36.57
2018-11-13T18:52:49.859Z,32.33
2018-11-13T18:55:18.989Z,37.03
2018-11-13T18:57:47.493Z,35.33
2018-11-13T19:00:21.387Z,34.13
2018-11-13T19:02:49.367Z,32.97
2018-11-13T19:05:18.264Z,33.03
2018-11-13T19:07:46.452Z,38.53
2018-11-13T19:10:25.083Z,39.50
2018-11-13T19:12:53.893Z,39.13
2018-11-13T19:15:23.064Z,37.20
2018-11-13T19:17:51.128Z,37.83
2018-11-13T19:20:20.067Z,37.93
2018-11-13T19:22:48.022Z,37.30
2018-11-13T19:25:17.581Z,41.10
2018-11-13T19:27:46.675Z,37.33
2018-11-13T19:30:15.634Z,38.53
2018-11-13T19:32:43.811Z,37.90
2018-11-13T19:35:12.223Z,40.83
2018-11-13T19:37:40.409Z,41.67
2018-11-13T19:40:12.124Z,41.23
2018-11-13T19:42:40.132Z,41.20
2018-11-13T19:45:08.359Z,32.20
2018-11-13T19:47:36.683Z,35.40
2018-11-13T19:50:07.108Z,38.50
2018-11-13T19:52:35.042Z,29.70
2018-11-13T19:55:03.024Z,30.77
2018-11-13T19:57:31.214Z,32.40
2018-11-13T19:59:59.089Z,33.27
2018-11-13T20:02:27.158Z,33.90
2018-11-13T20:04:55.211Z,27.53
2018-11-13T20:07:23.262Z,33.70
2018-11-13T20:09:51.160Z,31.90
2018-11-13T20:12:19.824Z,39.50
2018-11-13T20:14:48.221Z,33.63
2018-11-13T20:17:16.190Z,39.53
2018-11-13T20:19:44.181Z,36.80
2018-11-13T20:22:12.118Z,35.53
2018-11-13T20:24:40.207Z,39.47
2018-11-13T20:27:08.335Z,42.30
2018-11-13T20:29:37.119Z,43.23
2018-11-13T20:32:05.233Z,43.07
2018-11-13T20:34:33.233Z,40.37
2018-11-13T20:37:01.248Z,40.03
2018-11-13T20:39:29.174Z,36.27
2018-11-13T20:41:57.233Z,41.10
2018-11-13T20:44:25.327Z,38.67
2018-11-13T20:46:53.361Z,33.83
2018-11-13T20:49:21.291Z,44.03
2018-11-13T20:51:49.391Z,46.73
2018-11-13T20:54:17.310Z,38.17
2018-11-13T20:56:45.890Z,41.00
2018-11-13T20:59:13.726Z,41.43
2018-11-13T21:01:41.653Z,47.07
2018-11-13T21:04:09.605Z,45.77
2018-11-13T21:06:37.714Z,44.60
2018-11-13T21:09:07.154Z,44.43
2018-11-13T21:11:35.079Z,44.47
2018-11-13T21:14:03.050Z,43.90
2018-11-13T21:16:31.027Z,43.07
2018-11-13T21:18:59.204Z,39.13
2018-11-13T21:21:27.281Z,44.50
2018-11-13T21:23:55.420Z,45.27
2018-11-13T21:26:24.324Z,45.63
2018-11-13T21:28:52.367Z,40.30
2018-11-13T21:31:20.417Z,37.27
2018-11-13T21:33:48.424Z,39.23
2018-11-13T21:36:17.100Z,42.07
2018-11-13T21:38:47.367Z,44.70
2018-11-13T21:41:16.171Z,43.47
2018-11-13T21:43:44.710Z,40.07
2018-11-13T21:46:13.609Z,31.53
2018-11-13T21:48:41.534Z,32.90
2018-11-13T21:51:09.434Z,30.20
2018-11-13T21:53:38.237Z,26.77
2018-11-13T21:56:06.433Z,23.43
2018-11-13T21:58:34.447Z,24.77
2018-11-13T22:01:02.456Z,22.87
2018-11-13T22:03:30.406Z,22.43
2018-11-13T22:06:00.316Z,21.63
2018-11-13T22:08:28.370Z,19.27
2018-11-13T22:10:56.242Z,19.30
2018-11-13T22:13:24.163Z,25.57
2018-11-13T22:15:52.259Z,21.33
2018-11-13T22:18:21.209Z,20.13
2018-11-13T22:20:49.572Z,20.10
2018-11-13T22:23:17.615Z,26.97
2018-11-13T22:25:49.064Z,19.17
2018-11-13T22:28:17.080Z,20.00
2018-11-13T22:30:45.403Z,19.57
2018-11-13T22:33:13.380Z,18.57
2018-11-13T22:35:41.897Z,20.57
2018-11-13T22:38:09.888Z,18.03
2018-11-13T22:40:37.912Z,18.40
2018-11-13T22:43:05.923Z,19.47
2018-11-13T22:45:33.891Z,18.17
2018-11-13T22:48:02.225Z,19.50
2018-11-13T22:50:31.560Z,21.37
2018-11-13T22:52:59.439Z,50.97
2018-11-13T22:55:27.745Z,60.30
2018-11-13T22:57:56.574Z,59.93
2018-11-13T23:00:36.197Z,68.43
2018-11-13T23:03:05.313Z,65.10
2018-11-13T23:05:33.396Z,73.90
2018-11-13T23:08:01.687Z,75.73
2018-11-13T23:10:29.711Z,71.40
2018-11-13T23:12:57.843Z,75.20
2018-11-13T23:15:25.758Z,78.47
2018-11-13T23:17:54.932Z,58.10
2018-11-13T23:20:22.835Z,64.07
2018-11-13T23:22:50.846Z,59.00
2018-11-13T23:25:19.769Z,63.27
2018-11-13T23:27:48.710Z,58.83
2018-11-13T23:30:27.866Z,50.03
2018-11-13T23:32:57.572Z,41.47
2018-11-13T23:35:26.546Z,38.77
2018-11-13T23:37:57.568Z,47.80
2018-11-13T23:40:27.206Z,47.73
2018-11-13T23:42:55.777Z,42.27
2018-11-13T23:45:26.662Z,41.67
2018-11-13T23:47:55.856Z,39.17
2018-11-13T23:50:25.189Z,35.33
2018-11-13T23:52:52.905Z,37.33
2018-11-13T23:55:21.387Z,39.93
2018-11-13T23:57:49.394Z,34.90
